Time;durP1;ratioP1;P1;durP2;ratioP2;P2;SDS_P1;SDS_P2;PMS_P1;PMS_P2;Temp;Humidity;BMP_temperature;BMP_pressure;BME280_temperature;BME280_humidity;BME280_pressure;Samples;Min_cycle;Max_cycle;Signal;HPM_P1;HPM_P2
2022/07/01 00:01:38;;;;;;;16.83;15.17;;;20.00;99.90;21.10;96507.00;;;;5072618;28;20200;-62
2022/07/01 00:04:28;;;;;;;17.23;15.00;;;20.00;99.90;20.80;96509.00;;;;5072518;28;20218;-62
2022/07/01 00:07:17;;;;;;;18.10;14.60;;;19.90;99.90;20.40;96506.00;;;;5071460;28;20293;-63
2022/07/01 00:10:07;;;;;;;15.70;14.13;;;19.70;99.90;20.50;96505.00;;;;5072039;28;20210;-62
2022/07/01 00:12:56;;;;;;;20.03;17.03;;;19.60;99.90;20.60;96497.00;;;;5061312;28;20257;-62
2022/07/01 00:15:45;;;;;;;17.13;15.37;;;19.60;99.90;20.90;96496.00;;;;5071948;28;20307;-62
2022/07/01 00:18:34;;;;;;;23.93;17.70;;;19.60;99.90;21.10;96477.00;;;;5072529;28;20215;-62
2022/07/01 00:21:24;;;;;;;16.87;15.07;;;19.60;99.90;20.90;96485.00;;;;5071872;28;20207;-62
2022/07/01 00:24:13;;;;;;;18.07;16.37;;;19.60;99.90;20.90;96492.00;;;;5072082;28;20214;-62
2022/07/01 00:27:02;;;;;;;18.93;15.73;;;19.50;99.90;20.80;96493.00;;;;5071722;28;20220;-61
2022/07/01 00:29:50;;;;;;;18.70;15.50;;;19.50;99.90;20.90;96487.00;;;;5076556;28;20246;-62
2022/07/01 00:32:39;;;;;;;17.33;15.63;;;19.50;99.90;21.00;96484.00;;;;5064281;28;20832;-62
2022/07/01 00:35:28;;;;;;;17.90;16.13;;;19.50;99.90;21.20;96483.00;;;;5067904;28;20231;-62
2022/07/01 00:38:18;;;;;;;18.03;14.67;;;19.60;99.90;21.30;96489.00;;;;5074734;28;20285;-62
2022/07/01 00:41:07;;;;;;;15.37;13.53;;;19.60;99.90;20.90;96485.00;;;;5077844;28;20196;-62
2022/07/01 00:43:57;;;;;;;16.60;14.90;;;19.60;99.90;21.00;96479.00;;;;5070031;28;20200;-62
2022/07/01 00:46:46;;;;;;;19.17;14.87;;;19.60;99.90;21.20;96490.00;;;;5071115;28;20257;-62
2022/07/01 00:49:37;;;;;;;16.83;15.03;;;19.60;99.90;21.20;96489.00;;;;5071041;28;20253;-62
2022/07/01 00:52:26;;;;;;;29.13;16.43;;;19.70;99.90;21.00;96485.00;;;;5070909;28;20329;-62
2022/07/01 00:55:18;;;;;;;21.20;15.17;;;19.60;99.90;20.70;96477.00;;;;5071294;28;20280;-62
2022/07/01 00:58:08;;;;;;;17.53;15.27;;;19.60;99.90;20.40;96480.00;;;;5070704;28;20215;-62
2022/07/01 01:00:58;;;;;;;17.53;15.63;;;19.50;99.90;20.50;96484.00;;;;5070025;28;20694;-63
2022/07/01 01:03:47;;;;;;;19.90;15.87;;;19.40;99.90;20.50;96477.00;;;;5070675;28;20204;-62
2022/07/01 01:06:35;;;;;;;21.70;16.07;;;19.40;99.90;20.60;96478.00;;;;5070862;28;20272;-62
2022/07/01 01:09:25;;;;;;;17.03;15.37;;;19.30;99.90;20.70;96471.00;;;;5069683;28;20582;-62
2022/07/01 01:12:16;;;;;;;16.67;14.83;;;19.30;99.90;20.90;96475.00;;;;5070928;28;20204;-62
2022/07/01 01:15:06;;;;;;;17.90;15.93;;;19.30;99.90;20.90;96470.00;;;;5071011;28;20579;-62
2022/07/01 01:17:55;;;;;;;19.43;17.17;;;19.40;99.90;20.60;96475.00;;;;5070506;28;20222;-61
2022/07/01 01:20:45;;;;;;;16.87;15.23;;;19.30;99.90;20.30;96496.00;;;;5068272;28;20598;-62
2022/07/01 01:23:34;;;;;;;21.40;16.03;;;19.30;99.90;20.50;96500.00;;;;5070711;28;20588;-62
2022/07/01 01:26:25;;;;;;;19.67;16.87;;;19.20;99.90;20.70;96497.00;;;;5071786;28;20230;-62
2022/07/01 01:29:13;;;;;;;21.27;16.50;;;19.20;99.90;20.50;96493.00;;;;5073823;28;20196;-61
2022/07/01 01:32:03;;;;;;;19.33;17.13;;;19.20;99.90;20.40;96495.00;;;;5069489;28;20204;-62
2022/07/01 01:34:52;;;;;;;18.40;15.97;;;19.20;99.90;20.30;96502.00;;;;5070178;28;20203;-62
2022/07/01 01:37:42;;;;;;;23.00;17.37;;;19.10;99.90;20.20;96491.00;;;;5070321;28;20227;-62
2022/07/01 01:40:31;;;;;;;22.63;16.73;;;19.10;99.90;20.30;96498.00;;;;5070406;28;20237;-62
2022/07/01 01:43:19;;;;;;;18.47;15.97;;;19.10;99.90;20.30;96494.00;;;;5069301;28;20196;-61
2022/07/01 01:46:08;;;;;;;19.53;17.47;;;19.10;99.90;20.00;96492.00;;;;5069114;28;20714;-62
2022/07/01 01:48:57;;;;;;;25.10;16.40;;;19.00;99.90;19.80;96490.00;;;;5070224;28;20200;-62
2022/07/01 01:51:46;;;;;;;19.90;17.80;;;18.90;99.90;20.30;96500.00;;;;5070250;28;20683;-61
2022/07/01 01:54:36;;;;;;;18.57;16.40;;;18.90;99.90;20.50;96498.00;;;;5069859;28;20207;-61
2022/07/01 01:57:25;;;;;;;19.93;17.93;;;19.00;99.90;20.50;96485.00;;;;5069119;28;20585;-62
2022/07/01 02:00:14;;;;;;;20.10;16.13;;;19.00;99.90;20.00;96495.00;;;;5070296;28;20220;-62
2022/07/01 02:03:03;;;;;;;19.90;17.80;;;19.00;99.90;19.60;96495.00;;;;5069651;28;20567;-63
2022/07/01 02:05:53;;;;;;;19.17;16.90;;;18.90;99.90;20.00;96494.00;;;;5069046;28;20220;-63
2022/07/01 02:08:42;;;;;;;18.27;16.30;;;18.80;99.90;20.20;96491.00;;;;5068395;28;20196;-63
2022/07/01 02:11:32;;;;;;;19.43;17.33;;;18.90;99.90;20.10;96500.00;;;;5070313;28;20567;-62
2022/07/01 02:14:21;;;;;;;24.77;17.40;;;18.90;99.90;20.00;96491.00;;;;5069963;28;20207;-62
2022/07/01 02:17:10;;;;;;;19.83;16.53;;;18.80;99.90;19.70;96493.00;;;;5069184;28;21004;-61
2022/07/01 02:19:59;;;;;;;19.83;16.27;;;18.80;99.90;19.80;96487.00;;;;5081740;28;20222;-61
2022/07/01 02:22:47;;;;;;;19.27;17.47;;;18.70;99.90;19.90;96496.00;;;;5069255;28;20615;-61
2022/07/01 02:25:37;;;;;;;18.93;17.03;;;18.70;99.90;20.00;96496.00;;;;5069404;28;20595;-62
2022/07/01 02:28:27;;;;;;;19.83;16.17;;;18.70;99.90;19.40;96492.00;;;;5078922;28;20668;-62
2022/07/01 02:31:16;;;;;;;20.43;17.63;;;18.70;99.90;19.50;96490.00;;;;5069344;28;20207;-61
2022/07/01 02:34:04;;;;;;;21.03;18.67;;;18.70;99.90;20.00;96496.00;;;;5068979;28;20195;-62
2022/07/01 02:36:55;;;;;;;21.97;18.60;;;18.70;99.90;20.30;96498.00;;;;5058977;28;20605;-61
2022/07/01 02:39:43;;;;;;;26.83;18.20;;;18.80;99.90;20.40;96503.00;;;;5069049;28;20597;-62
2022/07/01 02:42:35;;;;;;;19.50;17.10;;;18.90;99.90;20.30;96499.00;;;;5069622;28;20208;-62
2022/07/01 02:45:25;;;;;;;19.13;16.90;;;18.90;99.90;19.90;96494.00;;;;5069038;28;20226;-62
2022/07/01 02:48:14;;;;;;;25.00;18.17;;;18.90;99.90;19.70;96501.00;;;;5069131;28;20200;-62
2022/07/01 02:51:03;;;;;;;19.93;17.53;;;18.80;99.90;19.50;96501.00;;;;5069385;28;20207;-61
2022/07/01 02:53:52;;;;;;;21.47;16.47;;;18.70;99.90;19.50;96501.00;;;;5068689;28;20577;-62
2022/07/01 02:56:40;;;;;;;19.83;16.80;;;18.60;99.90;19.50;96489.00;;;;5068804;28;20238;-61
2022/07/01 02:59:29;;;;;;;18.17;16.27;;;18.50;99.90;19.40;96496.00;;;;5069720;28;20232;-61
2022/07/01 03:02:20;;;;;;;22.50;19.10;;;18.50;99.90;19.00;96494.00;;;;5068953;28;20200;-62
2022/07/01 03:05:10;;;;;;;20.77;18.67;;;18.40;99.90;19.30;96494.00;;;;5069810;28;20234;-62
2022/07/01 03:07:59;;;;;;;19.57;17.43;;;18.40;99.90;19.50;96493.00;;;;5068520;28;20200;-61
2022/07/01 03:10:47;;;;;;;23.03;18.73;;;18.30;99.90;19.80;96501.00;;;;5068804;28;20212;-61
2022/07/01 03:13:36;;;;;;;21.03;18.90;;;18.40;99.90;19.60;96491.00;;;;5070729;28;20207;-62
2022/07/01 03:16:25;;;;;;;20.87;18.73;;;18.40;99.90;19.60;96483.00;;;;5069555;28;20608;-62
2022/07/01 03:19:15;;;;;;;24.37;19.77;;;18.40;99.90;19.40;96483.00;;;;5067983;28;20219;-62
2022/07/01 03:22:05;;;;;;;19.70;17.70;;;18.40;99.90;19.80;96497.00;;;;5068791;28;20193;-62
2022/07/01 03:24:55;;;;;;;23.00;20.60;;;18.40;99.90;19.90;96499.00;;;;5070168;28;20196;-62
2022/07/01 03:27:47;;;;;;;22.83;18.57;;;18.50;99.90;19.80;96498.00;;;;5080902;28;20206;-62
2022/07/01 03:30:36;;;;;;;23.63;18.20;;;18.50;99.90;19.70;96492.00;;;;5062842;28;20231;-61
2022/07/01 03:33:25;;;;;;;21.17;16.87;;;18.40;99.90;20.00;96494.00;;;;5072405;28;20192;-62
2022/07/01 03:36:17;;;;;;;23.60;17.27;;;18.50;99.90;20.10;96500.00;;;;5072542;28;20231;-62
2022/07/01 03:39:06;;;;;;;19.60;17.43;;;18.50;99.90;20.10;96496.00;;;;5071916;28;20220;-63
2022/07/01 03:41:55;;;;;;;23.03;17.40;;;18.60;99.90;19.70;96495.00;;;;5072385;28;20208;-62
2022/07/01 03:44:45;;;;;;;18.60;16.57;;;18.60;99.90;19.60;96503.00;;;;5066624;28;20200;-62
2022/07/01 03:47:33;;;;;;;21.90;16.90;;;18.50;99.90;19.60;96503.00;;;;5071727;28;20227;-62
2022/07/01 03:50:25;;;;;;;21.17;17.63;;;18.50;99.90;19.70;96504.00;;;;5072305;28;20291;-61
2022/07/01 03:56:21;;;;;;;25.17;18.50;;;18.60;99.90;20.00;96502.00;;;;5072400;28;20235;-61
2022/07/01 03:59:10;;;;;;;21.40;19.17;;;18.60;99.90;19.90;96503.00;;;;5071622;28;20234;-62
2022/07/01 04:02:00;;;;;;;21.63;17.27;;;18.60;99.90;19.70;96517.00;;;;5070572;28;20211;-62
2022/07/01 04:04:49;;;;;;;18.70;16.67;;;18.60;99.90;19.60;96509.00;;;;5069139;28;20226;-62
2022/07/01 04:07:38;;;;;;;20.80;18.43;;;18.60;99.90;19.60;96510.00;;;;5067868;28;20199;-62
2022/07/01 04:10:28;;;;;;;20.53;16.90;;;18.50;99.90;19.60;96519.00;;;;5058514;28;20200;-62
2022/07/01 04:13:17;;;;;;;22.73;19.70;;;18.50;99.90;19.90;96527.00;;;;5071361;28;20218;-61
2022/07/01 04:16:21;;;;;;;21.20;18.80;;;18.60;99.90;20.10;96527.00;;;;5064295;28;20234;-61
2022/07/01 04:19:10;;;;;;;21.93;18.70;;;18.70;99.90;20.30;96524.00;;;;5067363;28;20675;-61
2022/07/01 04:25:07;;;;;;;20.37;17.70;;;18.80;99.90;20.20;96527.00;;;;5072044;28;20697;-62
2022/07/01 04:27:57;;;;;;;22.23;17.70;;;18.90;99.90;20.20;96531.00;;;;5075213;28;20211;-62
2022/07/01 04:30:46;;;;;;;21.93;19.20;;;18.90;99.90;20.40;96524.00;;;;5067584;28;20223;-61
2022/07/01 04:33:35;;;;;;;23.73;16.97;;;18.90;99.90;20.70;96527.00;;;;5071340;28;20203;-62
2022/07/01 04:36:24;;;;;;;20.47;18.50;;;19.00;99.90;20.90;96525.00;;;;5070104;28;20216;-61
2022/07/01 04:39:13;;;;;;;20.03;18.07;;;19.10;99.90;20.90;96529.00;;;;5065522;28;20202;-62
2022/07/01 04:42:01;;;;;;;18.57;16.47;;;19.20;99.90;21.10;96526.00;;;;5071221;28;20218;-62
2022/07/01 04:44:51;;;;;;;20.20;15.53;;;19.40;99.90;20.70;96535.00;;;;5071922;28;20203;-62
2022/07/01 04:47:40;;;;;;;20.27;17.80;;;19.40;99.90;20.90;96541.00;;;;5068101;28;20362;-62
2022/07/01 04:50:28;;;;;;;19.43;16.70;;;19.50;99.90;21.30;96541.00;;;;5069063;28;20214;-62
2022/07/01 04:53:17;;;;;;;17.17;15.30;;;19.60;99.90;21.60;96537.00;;;;5061006;28;20207;-61
2022/07/01 04:56:06;;;;;;;19.30;16.03;;;19.70;99.90;21.30;96542.00;;;;5069323;28;20806;-61
2022/07/01 04:58:55;;;;;;;17.73;15.90;;;19.80;99.90;20.90;96547.00;;;;5062329;28;20782;-62
2022/07/01 05:01:48;;;;;;;17.63;15.83;;;19.80;99.90;20.70;96541.00;;;;5065059;28;20224;-62
2022/07/01 05:04:40;;;;;;;31.77;18.73;;;19.80;99.90;21.10;96543.00;;;;5065779;28;20195;-62
2022/07/01 05:07:28;;;;;;;17.13;15.33;;;19.80;99.90;21.50;96539.00;;;;5060006;28;20266;-62
2022/07/01 05:10:17;;;;;;;21.47;17.17;;;19.90;99.90;21.70;96544.00;;;;5066048;28;20204;-62
2022/07/01 05:13:07;;;;;;;20.97;17.77;;;20.10;99.90;21.80;96551.00;;;;5071085;28;20795;-62
2022/07/01 05:15:56;;;;;;;19.33;17.33;;;20.20;99.90;22.10;96551.00;;;;5058654;28;20707;-62
2022/07/01 05:21:58;;;;;;;24.73;18.43;;;20.50;99.90;22.80;96550.00;;;;5064490;28;20228;-62
2022/07/01 05:24:47;;;;;;;24.17;19.10;;;20.70;99.90;23.10;96547.00;;;;5063298;28;20713;-62
2022/07/01 05:27:36;;;;;;;21.53;17.57;;;21.00;99.90;23.30;96558.00;;;;5063778;28;20191;-62
2022/07/01 05:30:25;;;;;;;20.27;18.13;;;21.20;99.90;23.70;96557.00;;;;5069795;28;20204;-62
2022/07/01 05:33:13;;;;;;;20.70;17.50;;;21.40;99.90;23.90;96547.00;;;;5064797;28;20196;-62
2022/07/01 05:36:04;;;;;;;20.03;17.00;;;21.60;99.90;24.20;96556.00;;;;5068364;28;20231;-62
2022/07/01 05:38:53;;;;;;;24.13;17.70;;;21.80;99.90;24.30;96550.00;;;;5067478;28;20199;-62
2022/07/01 05:41:42;;;;;;;21.27;16.27;;;22.00;99.90;24.50;96550.00;;;;5053607;28;20609;-62
2022/07/01 05:44:30;;;;;;;17.33;15.53;;;22.20;99.90;24.30;96551.00;;;;5063895;28;20199;-62
2022/07/01 05:47:19;;;;;;;20.63;16.80;;;22.40;99.90;24.40;96547.00;;;;5069250;28;20615;-62
2022/07/01 05:50:09;;;;;;;19.77;17.27;;;22.50;99.90;24.30;96553.00;;;;5069444;28;20207;-62
2022/07/01 05:52:59;;;;;;;20.70;17.07;;;22.50;99.90;24.40;96555.00;;;;5070289;28;20204;-62
2022/07/01 05:55:48;;;;;;;23.73;15.53;;;22.60;99.90;24.30;96559.00;;;;5069597;28;20231;-62
2022/07/01 05:58:37;;;;;;;20.33;16.50;;;22.60;99.90;24.70;96556.00;;;;5069544;28;20686;-62
2022/07/01 06:01:26;;;;;;;17.33;15.53;;;22.70;99.90;25.00;96557.00;;;;5068216;28;20224;-62
2022/07/01 06:04:15;;;;;;;17.70;15.40;;;22.90;99.90;25.20;96559.00;;;;5070186;28;20208;-62
2022/07/01 06:07:04;;;;;;;18.20;15.60;;;23.00;99.90;25.00;96562.00;;;;5067452;28;20223;-62
2022/07/01 06:09:55;;;;;;;17.07;15.23;;;23.20;99.90;25.00;96561.00;;;;5069047;28;20211;-62
2022/07/01 06:12:44;;;;;;;20.37;16.20;;;23.20;99.90;25.40;96570.00;;;;5066463;28;20590;-62
2022/07/01 06:15:33;;;;;;;19.20;16.13;;;23.30;99.90;25.70;96572.00;;;;5069388;28;20231;-62
2022/07/01 06:18:22;;;;;;;16.43;14.83;;;23.50;99.90;25.90;96568.00;;;;5069776;28;20200;-61
2022/07/01 06:21:11;;;;;;;16.67;15.07;;;23.60;99.90;25.70;96576.00;;;;5072636;28;20232;-62
2022/07/01 06:23:59;;;;;;;17.87;15.07;;;23.70;99.90;25.60;96568.00;;;;5076802;28;20223;-62
2022/07/01 06:26:50;;;;;;;19.23;15.40;;;23.80;99.90;26.10;96571.00;;;;5085194;28;20231;-61
2022/07/01 06:29:38;;;;;;;18.33;13.60;;;23.90;99.90;26.00;96568.00;;;;5064941;28;20206;-61
2022/07/01 06:32:27;;;;;;;17.33;15.47;;;24.10;99.90;26.00;96572.00;;;;5061119;28;20216;-61
2022/07/01 06:35:16;;;;;;;22.03;15.20;;;24.10;99.90;26.10;96567.00;;;;5076354;28;20212;-62
2022/07/01 06:38:04;;;;;;;17.03;14.30;;;24.30;99.90;26.00;96574.00;;;;5078751;28;20210;-62
2022/07/01 06:44:04;;;;;;;18.27;14.77;;;24.30;99.90;26.30;96578.00;;;;5070511;28;20199;-62
2022/07/01 06:46:53;;;;;;;18.00;14.77;;;24.40;99.90;27.00;96584.00;;;;5055875;28;20212;-62
2022/07/01 06:49:42;;;;;;;17.00;14.47;;;24.60;99.90;26.90;96572.00;;;;5068755;28;20322;-62
2022/07/01 06:52:31;;;;;;;19.33;15.13;;;24.80;99.90;27.20;96578.00;;;;5070437;28;20218;-62
2022/07/01 06:55:19;;;;;;;15.73;14.03;;;24.90;99.90;27.40;96584.00;;;;5058044;28;20205;-62
2022/07/01 06:58:09;;;;;;;19.27;15.80;;;25.10;99.90;27.40;96583.00;;;;5063590;28;20202;-62
2022/07/01 07:00:59;;;;;;;19.07;16.20;;;25.20;99.90;27.50;96583.00;;;;5073183;28;20306;-61
2022/07/01 07:03:48;;;;;;;15.37;13.77;;;25.40;99.90;27.50;96586.00;;;;5083851;28;20214;-62
2022/07/01 07:06:37;;;;;;;15.73;13.40;;;25.50;99.90;27.90;96579.00;;;;5057996;28;20323;-61
2022/07/01 07:09:26;;;;;;;20.77;14.23;;;25.60;99.90;27.60;96571.00;;;;5070479;28;20224;-62
2022/07/01 07:12:14;;;;;;;15.50;13.93;;;25.70;99.90;28.00;96577.00;;;;5073158;28;20584;-62
2022/07/01 07:15:03;;;;;;;16.47;13.20;;;25.80;99.90;28.30;96570.00;;;;5079340;28;20200;-62
2022/07/01 07:17:57;;;;;;;17.73;12.47;;;26.00;99.90;28.60;96567.00;;;;5071523;28;20217;-62
2022/07/01 07:20:47;;;;;;;15.90;12.27;;;26.10;99.90;28.70;96567.00;;;;5080799;28;20215;-63
2022/07/01 07:23:37;;;;;;;13.00;11.70;;;26.30;99.90;28.70;96576.00;;;;5068188;28;20201;-62
2022/07/01 07:26:25;;;;;;;16.40;12.67;;;26.50;99.90;28.90;96576.00;;;;5071891;28;20602;-62
2022/07/01 07:29:14;;;;;;;17.77;13.20;;;26.70;99.90;29.10;96568.00;;;;5074214;28;20206;-62
2022/07/01 07:32:03;;;;;;;15.53;13.77;;;26.80;99.90;29.20;96570.00;;;;5082766;28;20198;-62
2022/07/01 07:34:53;;;;;;;14.97;12.33;;;26.90;99.90;29.40;96569.00;;;;5077005;28;20206;-62
2022/07/01 07:37:44;;;;;;;19.93;12.47;;;27.10;99.90;29.20;96560.00;;;;5074786;28;20208;-62
2022/07/01 07:40:33;;;;;;;16.33;13.23;;;27.20;99.90;29.40;96558.00;;;;5068781;28;20205;-63
2022/07/01 07:43:22;;;;;;;15.40;13.77;;;27.20;99.90;29.80;96559.00;;;;5069540;28;20215;-63
2022/07/01 07:46:11;;;;;;;18.63;12.50;;;27.40;99.90;29.60;96572.00;;;;5073284;28;20227;-63
2022/07/01 07:48:59;;;;;;;15.50;13.03;;;27.50;99.90;29.70;96560.00;;;;5063554;28;20205;-63
2022/07/01 07:51:50;;;;;;;15.83;11.70;;;27.60;99.90;30.10;96567.00;;;;5081200;28;20218;-62
2022/07/01 07:54:39;;;;;;;15.87;12.67;;;27.70;99.90;30.30;96565.00;;;;5076965;28;20197;-63
2022/07/01 07:57:28;;;;;;;20.33;11.73;;;27.90;99.90;30.20;96556.00;;;;5067155;28;20236;-63
2022/07/01 08:00:18;;;;;;;15.67;11.40;;;28.00;99.90;30.50;96554.00;;;;5066359;28;20218;-63
2022/07/01 08:03:07;;;;;;;13.53;11.47;;;28.10;99.90;30.50;96564.00;;;;5067260;28;20219;-63
2022/07/01 08:05:56;;;;;;;13.97;11.27;;;28.20;99.90;30.80;96566.00;;;;5066228;28;20689;-62
2022/07/01 08:08:46;;;;;;;13.43;11.80;;;28.40;99.90;31.10;96563.00;;;;5076990;28;20228;-63
2022/07/01 08:11:35;;;;;;;15.70;12.37;;;28.60;99.90;31.10;96567.00;;;;5075435;28;20225;-63
2022/07/01 08:14:24;;;;;;;15.17;11.77;;;28.70;99.90;31.30;96558.00;;;;5076260;28;20203;-63
2022/07/01 08:17:12;;;;;;;15.27;12.27;;;28.90;99.90;31.20;96564.00;;;;5077027;28;20258;-63
2022/07/01 08:20:01;;;;;;;13.40;11.63;;;29.00;99.90;31.20;96567.00;;;;5074802;28;20214;-62
2022/07/01 08:22:50;;;;;;;16.90;12.15;;;29.00;99.90;31.70;96571.00;;;;5070087;28;20624;-62
2022/07/01 08:25:41;;;;;;;12.77;11.18;;;29.20;99.90;31.80;96566.00;;;;5076766;28;20226;-62
2022/07/01 08:28:30;;;;;;;15.65;11.52;;;29.40;99.90;31.70;96570.00;;;;5074757;28;20206;-63
2022/07/01 08:31:18;;;;;;;14.77;10.65;;;29.40;99.90;32.00;96563.00;;;;5058541;28;20215;-63
2022/07/01 08:34:09;;;;;;;11.27;9.35;;;29.50;99.90;32.00;96565.00;;;;5071810;28;20209;-63
2022/07/01 08:36:57;;;;;;;9.82;8.93;;;29.70;99.90;32.30;96568.00;;;;5067190;28;20234;-62
2022/07/01 08:39:46;;;;;;;14.70;9.07;;;29.80;99.90;32.50;96566.00;;;;5066902;28;20209;-63
2022/07/01 08:42:36;;;;;;;10.02;9.18;;;29.90;99.90;32.70;96567.00;;;;5070941;28;20229;-63
2022/07/01 08:45:28;;;;;;;12.48;9.65;;;30.10;99.90;32.70;96565.00;;;;5070716;28;20676;-63
2022/07/01 08:48:17;;;;;;;10.10;8.88;;;30.20;99.90;32.90;96568.00;;;;5074150;28;20212;-63
2022/07/01 08:51:06;;;;;;;9.63;7.63;;;30.40;99.90;33.10;96566.00;;;;5065712;28;20209;-63
2022/07/01 08:53:55;;;;;;;10.82;7.95;;;30.50;99.90;32.60;96563.00;;;;5070898;28;20205;-63
2022/07/01 08:56:45;;;;;;;10.30;7.00;;;30.50;99.90;33.10;96571.00;;;;5069914;28;20239;-62
2022/07/01 08:59:35;;;;;;;10.20;7.05;;;30.60;99.90;32.50;96565.00;;;;5077139;28;20260;-62
2022/07/01 09:02:24;;;;;;;8.55;6.45;;;30.60;97.70;32.90;96560.00;;;;5066485;28;20618;-62
2022/07/01 09:05:13;;;;;;;7.47;6.78;;;30.60;96.90;33.10;96556.00;;;;5079225;28;20672;-63
2022/07/01 09:08:04;;;;;;;6.75;5.55;;;30.60;98.30;33.30;96554.00;;;;5070601;28;20575;-62
2022/07/01 09:10:53;;;;;;;8.57;6.15;;;30.70;97.50;33.20;96552.00;;;;5068455;28;20198;-62
2022/07/01 09:13:43;;;;;;;7.30;5.85;;;30.80;95.10;33.10;96554.00;;;;5075904;28;20206;-63
2022/07/01 09:16:41;;;;;;;6.65;5.97;;;30.90;94.40;33.20;96542.00;;;;5065745;28;20219;-63
2022/07/01 09:19:34;;;;;;;6.97;5.80;;;31.00;93.20;33.00;96552.00;;;;5066869;28;20203;-63
2022/07/01 09:22:22;;;;;;;10.07;5.80;;;31.00;93.70;33.70;96548.00;;;;5066883;28;20226;-62
2022/07/01 09:25:15;;;;;;;8.48;5.35;;;31.10;94.00;33.90;96552.00;;;;5069846;28;20655;-64
2022/07/01 09:28:10;;;;;;;9.32;5.55;;;31.30;90.90;33.50;96543.00;;;;5068380;28;20199;-63
2022/07/01 09:30:59;;;;;;;7.00;6.30;;;31.40;88.80;33.80;96544.00;;;;5070499;28;20210;-62
2022/07/01 09:34:04;;;;;;;7.72;5.47;;;31.50;90.70;33.20;96546.00;;;;5069272;28;20679;-63
2022/07/01 09:36:55;;;;;;;7.68;5.75;;;31.50;84.60;34.20;96548.00;;;;5070073;28;20620;-63
2022/07/01 09:39:46;;;;;;;7.38;5.38;;;31.60;85.30;34.60;96547.00;;;;5069351;28;20214;-63
2022/07/01 09:42:46;;;;;;;9.95;6.38;;;31.80;86.80;34.80;96539.00;;;;5068732;28;20229;-64
2022/07/01 09:45:35;;;;;;;12.75;6.97;;;32.10;86.60;35.00;96548.00;;;;5057134;28;20226;-63
2022/07/01 09:48:28;;;;;;;8.50;6.07;;;32.20;86.40;34.10;96574.00;;;;5069649;28;20598;-63
2022/07/01 09:51:18;;;;;;;10.70;7.15;;;32.20;86.80;33.20;96573.00;;;;5070121;28;20194;-64
2022/07/01 09:54:07;;;;;;;8.68;6.18;;;31.80;85.60;32.50;96560.00;;;;5069732;28;20575;-63
2022/07/01 09:56:55;;;;;;;10.63;7.63;;;31.40;81.50;31.80;96520.00;;;;5059928;28;20238;-63
2022/07/01 09:59:44;;;;;;;7.95;7.18;;;30.90;86.00;32.80;96528.00;;;;5069238;28;20204;-64
2022/07/01 10:02:35;;;;;;;10.23;7.65;;;30.90;86.10;33.20;96525.00;;;;5067461;28;20709;-62
2022/07/01 10:05:25;;;;;;;13.10;7.80;;;31.00;85.80;34.10;96523.00;;;;5069629;28;20211;-62
2022/07/01 10:08:44;;;;;;;11.45;7.00;;;31.30;88.80;34.70;96531.00;;;;5056987;28;20199;-62
2022/07/01 10:12:04;;;;;;;8.02;6.85;;;31.70;87.30;34.70;96525.00;;;;5069532;28;20213;-63
2022/07/01 10:14:54;;;;;;;9.73;7.72;;;32.00;85.00;34.80;96519.00;;;;5060063;28;20213;-62
2022/07/01 10:17:46;;;;;;;6.75;6.15;;;32.20;83.90;35.40;96521.00;;;;5064029;28;20206;-63
2022/07/01 10:20:35;;;;;;;10.80;6.60;;;32.50;85.10;35.00;96536.00;;;;5060945;28;20208;-63
2022/07/01 10:23:29;;;;;;;9.20;7.63;;;32.70;83.40;35.00;96526.00;;;;5058832;28;20627;-63
2022/07/01 10:26:19;;;;;;;6.53;5.85;;;32.70;79.60;35.50;96533.00;;;;5064007;28;20309;-62
2022/07/01 10:29:29;;;;;;;7.15;6.18;;;32.90;80.90;36.10;96531.00;;;;5068108;28;20198;-63
2022/07/01 10:32:28;;;;;;;8.25;5.65;;;33.20;83.80;35.50;96533.00;;;;5064568;28;20203;-64
2022/07/01 10:35:28;;;;;;;9.07;7.25;;;33.40;78.80;34.60;96526.00;;;;5058149;28;20204;-63
2022/07/01 10:38:17;;;;;;;10.43;6.65;;;33.10;74.20;35.80;96534.00;;;;5076669;28;20222;-63
2022/07/01 10:41:24;;;;;;;16.38;6.25;;;33.20;77.20;35.10;96530.00;;;;5070199;28;20581;-63
2022/07/01 10:44:15;;;;;;;7.82;6.10;;;33.30;76.40;34.60;96533.00;;;;5077700;28;20255;-63
2022/07/01 10:47:08;;;;;;;6.28;5.75;;;33.10;73.30;35.50;96529.00;;;;5066782;28;20231;-64
2022/07/01 10:50:00;;;;;;;8.95;5.95;;;33.30;71.60;35.60;96512.00;;;;5064773;28;20198;-64
2022/07/01 10:53:02;;;;;;;6.88;5.68;;;33.40;67.50;36.60;96507.00;;;;5063624;28;20215;-63
2022/07/01 10:55:53;;;;;;;8.88;5.65;;;33.60;71.30;36.00;96521.00;;;;5065526;28;20230;-62
2022/07/01 10:58:46;;;;;;;7.82;5.35;;;33.80;68.20;36.30;96560.00;;;;5063300;28;20584;-63
2022/07/01 11:01:35;;;;;;;8.10;5.90;;;33.80;72.50;36.60;96512.00;;;;5063600;28;20580;-63
2022/07/01 11:04:24;;;;;;;8.93;6.65;;;33.90;71.90;37.20;96493.00;;;;5064854;28;20316;-63
2022/07/01 11:07:13;;;;;;;7.60;5.60;;;34.20;73.70;37.60;96488.00;;;;5059838;28;20231;-63
2022/07/01 11:10:05;;;;;;;10.57;6.13;;;34.50;74.60;37.00;96492.00;;;;5067898;28;20200;-63
2022/07/01 11:12:54;;;;;;;11.80;7.00;;;34.60;70.80;37.10;96480.00;;;;5067847;28;20211;-63
2022/07/01 11:15:47;;;;;;;11.35;6.32;;;34.80;71.10;37.30;96484.00;;;;5068801;28;20219;-62
2022/07/01 11:18:36;;;;;;;7.47;6.05;;;34.90;71.10;37.50;96483.00;;;;5060476;28;20206;-63
2022/07/01 11:21:25;;;;;;;6.80;5.40;;;35.00;71.10;38.40;96466.00;;;;5062698;28;20609;-63
2022/07/01 11:24:14;;;;;;;7.22;6.20;;;35.30;70.30;38.70;96472.00;;;;5067966;28;20220;-63
2022/07/01 11:27:08;;;;;;;7.63;5.97;;;35.60;70.10;37.70;96477.00;;;;5068008;28;20201;-63
2022/07/01 11:29:58;;;;;;;;;;;35.60;69.80;37.30;96472.00;;;;5068397;28;20052;-63
2022/07/01 11:32:51;;;;;;;6.83;6.07;;;35.60;67.80;38.10;96463.00;;;;5060862;28;20393;-63
2022/07/01 11:41:55;;;;;;;6.70;5.65;;;35.60;67.70;37.30;96466.00;;;;5067402;28;20384;-64
2022/07/01 11:44:45;;;;;;;8.57;6.28;;;35.60;66.40;36.90;96457.00;;;;5068336;28;20657;-64
2022/07/01 11:47:34;;;;;;;8.30;6.35;;;35.40;66.30;38.20;96461.00;;;;5071261;28;20398;-62
2022/07/01 11:50:26;;;;;;;7.38;6.30;;;35.60;68.10;36.90;96513.00;;;;5067082;28;20380;-65
2022/07/01 11:53:15;;;;;;;7.07;6.35;;;35.60;64.20;38.10;96443.00;;;;5071037;28;20392;-63
2022/07/01 11:56:04;;;;;;;8.50;5.43;;;35.60;66.90;38.90;96450.00;;;;5068759;28;20400;-63
2022/07/01 11:58:54;;;;;;;9.10;6.45;;;35.90;67.30;38.20;96443.00;;;;5058349;28;20399;-64
2022/07/01 12:01:43;;;;;;;5.90;5.35;;;36.00;67.90;35.20;96437.00;;;;5055943;28;20389;-65
2022/07/01 12:04:32;;;;;;;6.93;5.93;;;35.30;61.50;36.80;96448.00;;;;5065550;28;20426;-64
2022/07/01 12:07:24;;;;;;;7.47;6.00;;;35.10;63.10;38.10;96450.00;;;;5071061;28;20763;-64
2022/07/01 12:10:16;;;;;;;6.55;5.85;;;35.30;65.80;38.30;96452.00;;;;5076559;28;20742;-64
2022/07/01 12:13:23;;;;;;;10.97;5.90;;;35.60;65.20;38.40;96443.00;;;;5069543;28;20407;-64
2022/07/01 12:16:14;;;;;;;10.02;5.65;;;35.80;65.80;39.20;96445.00;;;;5084797;28;20931;-63
2022/07/01 12:19:03;;;;;;;5.65;5.00;;;36.10;65.90;39.70;96473.00;;;;5070350;28;20678;-63
2022/07/01 12:21:54;;;;;;;6.97;4.72;;;36.50;65.10;39.70;96437.00;;;;5067745;28;20235;-63
2022/07/01 12:24:46;;;;;;;7.65;4.72;;;36.70;67.90;36.40;96427.00;;;;5062906;28;20708;-66
2022/07/01 12:27:38;;;;;;;8.07;5.55;;;36.40;59.10;35.30;96446.00;;;;5069147;28;20215;-65
2022/07/01 12:30:32;;;;;;;6.55;4.85;;;35.60;57.80;38.30;96434.00;;;;5053721;28;20205;-65
2022/07/01 12:33:21;;;;;;;9.38;5.57;;;35.60;60.70;38.00;96437.00;;;;5088040;22;20707;-65
2022/07/01 12:36:12;;;;;;;8.00;4.35;;;35.70;58.40;39.30;96432.00;;;;5069585;28;20325;-66
2022/07/01 12:39:04;;;;;;;4.57;4.13;;;36.10;60.20;40.10;96434.00;;;;5076121;28;20203;-66
2022/07/01 12:41:54;;;;;;;6.43;4.32;;;36.50;60.40;39.00;96432.00;;;;5064698;28;20208;-67
2022/07/01 12:44:46;;;;;;;7.18;4.43;;;36.90;57.10;40.40;96429.00;;;;5058061;28;20632;-66